createdAt,value
2022-09-14T00:01:44.448Z,99269.17
2022-09-14T00:04:27.956Z,99270.15
2022-09-14T00:06:55.834Z,99270.14
2022-09-14T00:09:25.306Z,99268.81
2022-09-14T00:11:53.726Z,99267.16
2022-09-14T00:14:21.946Z,99264.42
2022-09-14T00:16:52.226Z,99264.93
2022-09-14T00:19:27.064Z,99260.39
2022-09-14T00:21:58.769Z,99258.21
2022-09-14T00:24:31.731Z,99258.16
2022-09-14T00:26:59.691Z,99255.45
2022-09-14T00:29:27.606Z,99256.34
2022-09-14T00:31:57.183Z,99255.20
2022-09-14T00:34:25.275Z,99254.42
2022-09-14T00:36:53.416Z,99257.96
2022-09-14T00:39:23.958Z,99250.89
2022-09-14T00:41:53.237Z,99252.63
2022-09-14T00:44:24.494Z,99251.02
2022-09-14T00:46:57.096Z,99250.84
2022-09-14T00:49:35.670Z,99255.89
2022-09-14T00:52:13.279Z,99256.23
2022-09-14T00:54:55.758Z,99257.83
2022-09-14T00:57:27.130Z,99259.48
2022-09-14T00:59:56.377Z,99258.08
2022-09-14T01:02:27.697Z,99260.62
2022-09-14T01:04:56.497Z,99264.32
2022-09-14T01:07:36.518Z,99262.77
2022-09-14T01:10:22.095Z,99263.41
2022-09-14T01:12:50.132Z,99265.29
2022-09-14T01:15:28.117Z,99268.59
2022-09-14T01:18:48.895Z,99266.17
2022-09-14T01:21:25.270Z,99262.41
2022-09-14T01:24:12.397Z,99264.31
2022-09-14T01:27:01.639Z,99266.12
2022-09-14T01:29:48.435Z,99257.30
2022-09-14T01:32:29.177Z,99257.86
2022-09-14T01:35:05.836Z,99256.98
2022-09-14T01:37:46.426Z,99253.92
2022-09-14T01:40:28.336Z,99253.91
2022-09-14T01:43:16.206Z,99249.93
2022-09-14T01:45:52.262Z,99247.30
2022-09-14T01:48:31.648Z,99243.39
2022-09-14T01:51:03.358Z,99236.70
2022-09-14T01:53:46.348Z,99229.73
2022-09-14T01:56:26.883Z,99230.80
2022-09-14T01:59:17.224Z,99231.02
2022-09-14T02:01:55.995Z,99234.48
2022-09-14T02:04:58.891Z,99226.20
2022-09-14T02:07:26.999Z,99223.09
2022-09-14T02:09:56.554Z,99221.54
2022-09-14T02:12:24.464Z,99223.48
2022-09-14T02:14:54.622Z,99219.60
2022-09-14T02:17:23.263Z,99221.91
2022-09-14T02:20:04.897Z,99221.60
2022-09-14T02:22:32.849Z,99220.45
2022-09-14T02:25:02.137Z,99220.19
2022-09-14T02:27:30.203Z,99222.10
2022-09-14T02:29:58.664Z,99223.09
2022-09-14T02:32:39.801Z,99223.87
2022-09-14T02:35:22.394Z,99222.63
2022-09-14T02:38:11.565Z,99222.05
2022-09-14T02:40:46.765Z,99224.49
2022-09-14T02:43:45.676Z,99226.38
2022-09-14T02:46:32.000Z,99223.71
2022-09-14T02:49:32.284Z,99223.41
2022-09-14T02:52:30.433Z,99225.05
2022-09-14T02:55:14.757Z,99224.96
2022-09-14T02:58:01.210Z,99224.70
2022-09-14T03:00:31.673Z,99222.80
2022-09-14T03:02:59.854Z,99225.57
2022-09-14T03:05:27.862Z,99222.58
2022-09-14T03:07:56.030Z,99223.20
2022-09-14T03:10:24.039Z,99225.02
2022-09-14T03:12:52.963Z,99224.93
2022-09-14T03:15:21.315Z,99222.63
2022-09-14T03:17:51.160Z,99227.77
2022-09-14T03:20:22.111Z,99227.52
2022-09-14T03:22:50.524Z,99227.48
2022-09-14T03:25:25.487Z,99228.13
2022-09-14T03:27:57.274Z,99226.34
2022-09-14T03:30:26.095Z,99224.62
2022-09-14T03:32:54.117Z,99225.56
2022-09-14T03:35:22.155Z,99220.61
2022-09-14T03:37:50.484Z,99219.33
2022-09-14T03:40:21.833Z,99216.27
2022-09-14T03:42:52.110Z,99214.30
2022-09-14T03:45:22.078Z,99211.66
2022-09-14T03:47:50.429Z,99211.87
2022-09-14T03:50:19.348Z,99206.62
2022-09-14T03:52:48.249Z,99204.35
2022-09-14T03:55:16.408Z,99204.04
2022-09-14T03:57:44.342Z,99201.65
2022-09-14T04:00:12.642Z,99196.65
2022-09-14T04:02:41.253Z,99207.75
2022-09-14T04:05:10.424Z,99215.67
2022-09-14T04:07:38.549Z,99211.01
2022-09-14T04:10:07.885Z,99214.20
2022-09-14T04:12:39.475Z,99214.15
2022-09-14T04:15:08.263Z,99211.98
2022-09-14T04:17:36.184Z,99207.17
2022-09-14T04:20:05.903Z,99209.48
2022-09-14T04:22:37.463Z,99211.88
2022-09-14T04:25:05.918Z,99207.73
2022-09-14T04:27:33.917Z,99209.11
2022-09-14T04:30:02.209Z,99209.27
2022-09-14T04:32:34.246Z,99209.61
2022-09-14T04:35:02.906Z,99205.98
2022-09-14T04:37:32.554Z,99202.86
2022-09-14T04:40:00.679Z,99201.08
2022-09-14T04:42:31.762Z,99206.23
2022-09-14T04:44:59.752Z,99204.15
2022-09-14T04:47:28.926Z,99204.57
2022-09-14T04:49:56.820Z,99209.88
2022-09-14T04:52:24.957Z,99209.31
2022-09-14T04:54:52.945Z,99207.20
2022-09-14T04:57:20.925Z,99205.44
2022-09-14T04:59:49.014Z,99203.08
2022-09-14T05:02:17.086Z,99199.73
2022-09-14T05:04:45.433Z,99204.54
2022-09-14T05:07:13.365Z,99204.20
2022-09-14T05:09:41.765Z,99207.52
2022-09-14T05:12:09.905Z,99212.80
2022-09-14T05:14:38.114Z,99217.40
2022-09-14T05:17:06.195Z,99215.58
2022-09-14T05:19:34.231Z,99216.21
2022-09-14T05:22:02.255Z,99217.95
2022-09-14T05:24:30.580Z,99216.73
2022-09-14T05:27:01.584Z,99212.66
2022-09-14T05:29:32.120Z,99210.36
2022-09-14T05:32:00.455Z,99212.74
2022-09-14T05:34:28.529Z,99208.80
2022-09-14T05:36:56.484Z,99207.08
2022-09-14T05:39:25.315Z,99204.17
2022-09-14T05:41:53.375Z,99199.69
2022-09-14T05:44:21.687Z,99202.08
2022-09-14T05:46:49.770Z,99207.98
2022-09-14T05:49:18.135Z,99208.74
2022-09-14T05:51:46.455Z,99210.45
2022-09-14T05:54:15.288Z,99212.64
2022-09-14T05:56:43.368Z,99211.20
2022-09-14T05:59:11.845Z,99214.95
2022-09-14T06:01:40.690Z,99209.58
2022-09-14T06:04:11.565Z,99209.02
2022-09-14T06:06:39.608Z,99205.71
2022-09-14T06:09:07.703Z,99205.58
2022-09-14T06:11:38.640Z,99199.42
2022-09-14T06:14:07.429Z,99198.33
2022-09-14T06:16:35.603Z,99200.58
2022-09-14T06:19:04.674Z,99202.83
2022-09-14T06:21:35.112Z,99204.99
2022-09-14T06:24:03.924Z,99203.48
2022-09-14T06:26:32.427Z,99209.02
2022-09-14T06:29:00.437Z,99213.57
2022-09-14T06:31:28.721Z,99214.48
2022-09-14T06:33:56.718Z,99217.12
2022-09-14T06:36:27.685Z,99220.11
2022-09-14T06:38:57.130Z,99220.89
2022-09-14T06:41:29.830Z,99222.23
2022-09-14T06:43:59.871Z,99227.94
2022-09-14T06:46:31.395Z,99228.12
2022-09-14T06:49:02.921Z,99230.48
2022-09-14T06:51:37.351Z,99232.77
2022-09-14T06:54:06.905Z,99240.73
2022-09-14T06:56:37.196Z,99237.09
2022-09-14T06:59:07.628Z,99241.42
2022-09-14T07:01:36.184Z,99241.45
2022-09-14T07:04:05.995Z,99246.64
2022-09-14T07:06:40.474Z,99248.05
2022-09-14T07:09:09.136Z,99250.35
2022-09-14T07:11:38.539Z,99249.81
2022-09-14T07:14:07.759Z,99252.95
2022-09-14T07:16:37.204Z,99259.67
2022-09-14T07:19:11.457Z,99261.89
2022-09-14T07:21:40.590Z,99263.68
2022-09-14T07:24:08.840Z,99264.33
2022-09-14T07:26:42.796Z,99269.13
2022-09-14T07:29:17.227Z,99272.13
2022-09-14T07:31:48.421Z,99268.92
2022-09-14T07:34:17.401Z,99270.75
2022-09-14T07:36:46.488Z,99272.55
2022-09-14T07:39:17.617Z,99261.58
2022-09-14T07:41:45.995Z,99261.60
2022-09-14T07:44:16.908Z,99255.58
2022-09-14T07:46:47.160Z,99257.04
2022-09-14T07:49:16.577Z,99261.43
2022-09-14T07:51:45.369Z,99259.00
2022-09-14T07:54:15.014Z,99260.16
2022-09-14T07:56:43.962Z,99260.94
2022-09-14T08:02:02.983Z,99250.91
2022-09-14T08:04:31.029Z,99252.14
2022-09-14T08:06:59.249Z,99259.46
2022-09-14T08:09:27.906Z,99257.96
2022-09-14T08:11:56.460Z,99259.11
2022-09-14T08:14:25.438Z,99265.70
2022-09-14T08:16:53.619Z,99267.88
2022-09-14T08:19:22.075Z,99265.44
2022-09-14T08:21:50.158Z,99267.33
2022-09-14T08:24:21.238Z,99269.43
2022-09-14T08:26:49.731Z,99267.66
2022-09-14T08:29:19.538Z,99264.20
2022-09-14T08:31:52.091Z,99267.93
2022-09-14T08:34:20.588Z,99269.16
2022-09-14T08:36:48.934Z,99276.25
2022-09-14T08:39:18.462Z,99272.07
2022-09-14T08:41:53.357Z,99269.60
2022-09-14T08:44:30.907Z,99268.10
2022-09-14T08:47:21.863Z,99269.01
2022-09-14T08:49:58.873Z,99266.86
2022-09-14T08:52:49.441Z,99269.64
2022-09-14T08:55:21.524Z,99269.96
2022-09-14T08:58:02.706Z,99269.84
2022-09-14T09:00:57.610Z,99273.08
2022-09-14T09:03:47.243Z,99272.48
2022-09-14T09:06:57.458Z,99267.46
2022-09-14T09:09:52.495Z,99268.15
2022-09-14T09:12:27.997Z,99259.96
2022-09-14T09:15:00.845Z,99261.73
2022-09-14T09:17:33.968Z,99264.92
2022-09-14T09:20:18.094Z,99266.59
2022-09-14T09:22:54.849Z,99266.58
2022-09-14T09:25:27.314Z,99267.79
2022-09-14T09:28:02.837Z,99263.89
2022-09-14T09:30:31.214Z,99258.30
2022-09-14T09:32:59.489Z,99252.91
2022-09-14T09:35:27.730Z,99255.83
2022-09-14T09:37:55.905Z,99256.61
2022-09-14T09:40:45.186Z,99255.59
2022-09-14T09:43:28.954Z,99252.54
2022-09-14T09:46:08.775Z,99252.13
2022-09-14T09:48:44.049Z,99255.49
2022-09-14T09:51:15.030Z,99253.16
2022-09-14T09:53:50.027Z,99252.17
2022-09-14T09:56:28.115Z,99256.98
2022-09-14T09:58:56.098Z,99250.91
2022-09-14T10:01:35.598Z,99254.10
2022-09-14T10:04:34.135Z,99252.69
2022-09-14T10:07:04.241Z,99250.91
2022-09-14T10:09:32.489Z,99258.79
2022-09-14T10:12:03.123Z,99260.90
2022-09-14T10:14:37.983Z,99261.89
2022-09-14T10:17:17.489Z,99256.05
2022-09-14T10:19:54.179Z,99267.31
2022-09-14T10:22:32.749Z,99264.48
2022-09-14T10:25:13.582Z,99264.46
2022-09-14T10:28:04.374Z,99271.97
2022-09-14T10:30:39.735Z,99274.84
2022-09-14T10:33:13.332Z,99272.52
2022-09-14T10:35:50.436Z,99271.97
2022-09-14T10:38:31.263Z,99271.88
2022-09-14T10:41:25.744Z,99278.08
2022-09-14T10:44:26.544Z,99282.08
2022-09-14T10:47:10.139Z,99280.18
2022-09-14T10:50:15.664Z,99275.08
2022-09-14T10:52:49.369Z,99268.89
2022-09-14T10:55:43.933Z,99265.39
2022-09-14T10:58:27.982Z,99262.83
2022-09-14T11:01:26.671Z,99268.13
2022-09-14T11:03:54.811Z,99269.17
2022-09-14T11:06:28.739Z,99263.66
2022-09-14T11:09:11.538Z,99263.59
2022-09-14T11:11:52.769Z,99259.73
2022-09-14T11:14:31.604Z,99263.45
2022-09-14T11:17:22.653Z,99264.24
2022-09-14T11:20:26.845Z,99261.64
2022-09-14T11:23:19.641Z,99270.88
2022-09-14T11:26:11.774Z,99270.77
2022-09-14T11:28:45.212Z,99271.63
2022-09-14T11:31:19.498Z,99274.91
2022-09-14T11:34:13.707Z,99274.22
2022-09-14T11:36:46.253Z,99268.20
2022-09-14T11:39:26.920Z,99265.71
2022-09-14T11:42:09.712Z,99260.66
2022-09-14T11:44:40.899Z,99257.74
2022-09-14T11:47:14.880Z,99254.80
2022-09-14T11:49:52.524Z,99257.17
2022-09-14T11:52:23.619Z,99252.86
2022-09-14T11:54:52.693Z,99245.89
2022-09-14T11:57:26.124Z,99246.44
2022-09-14T11:59:57.667Z,99241.98
2022-09-14T12:02:25.926Z,99248.25
2022-09-14T12:05:05.790Z,99258.34
2022-09-14T12:07:42.433Z,99253.89
2022-09-14T12:10:16.479Z,99259.35
2022-09-14T12:12:47.700Z,99263.27
2022-09-14T12:15:24.831Z,99265.89
2022-09-14T12:18:07.867Z,99252.08
2022-09-14T12:20:39.351Z,99251.73
2022-09-14T12:23:10.025Z,99251.45
2022-09-14T12:25:40.918Z,99248.72
2022-09-14T12:28:29.822Z,99251.89
2022-09-14T12:30:58.014Z,99244.70
2022-09-14T12:33:34.725Z,99243.23
2022-09-14T12:36:11.187Z,99240.14
2022-09-14T12:38:42.685Z,99237.66
2022-09-14T12:41:10.833Z,99241.58
2022-09-14T12:43:41.794Z,99246.54
2022-09-14T12:46:11.270Z,99239.66
2022-09-14T12:48:48.630Z,99245.70
2022-09-14T12:51:23.767Z,99243.01
2022-09-14T12:54:09.731Z,99241.44
2022-09-14T12:56:41.211Z,99243.02
2022-09-14T12:59:45.056Z,99245.29
2022-09-14T13:02:37.754Z,99249.09
2022-09-14T13:05:12.966Z,99245.08
2022-09-14T13:07:42.270Z,99245.98
2022-09-14T13:10:29.335Z,99238.15
2022-09-14T13:12:58.108Z,99239.39
2022-09-14T13:15:28.888Z,99239.29
2022-09-14T13:18:06.211Z,99238.48
2022-09-14T13:20:35.929Z,99233.72
2022-09-14T13:23:20.102Z,99236.89
2022-09-14T13:25:50.139Z,99230.05
2022-09-14T13:28:20.501Z,99232.65
2022-09-14T13:30:56.897Z,99229.55
2022-09-14T13:33:25.764Z,99225.65
2022-09-14T13:35:57.291Z,99225.20
2022-09-14T13:38:30.093Z,99216.46
2022-09-14T13:41:16.317Z,99215.14
2022-09-14T13:44:04.878Z,99214.31
2022-09-14T13:46:36.205Z,99210.88
2022-09-14T13:49:07.404Z,99204.94
2022-09-14T13:51:35.617Z,99201.23
2022-09-14T13:54:23.929Z,99196.25
2022-09-14T13:57:18.507Z,99204.11
2022-09-14T14:00:14.403Z,99192.64
2022-09-14T14:02:53.183Z,99197.05
2022-09-14T14:05:30.658Z,99194.84
2022-09-14T14:08:00.966Z,99193.63
2022-09-14T14:10:37.828Z,99191.48
2022-09-14T14:13:06.102Z,99186.98
2022-09-14T14:15:38.669Z,99180.98
2022-09-14T14:18:42.102Z,99178.00
2022-09-14T14:21:32.919Z,99178.13
2022-09-14T14:24:28.575Z,99169.96
2022-09-14T14:26:58.424Z,99173.23
2022-09-14T14:29:26.958Z,99173.98
2022-09-14T14:31:56.651Z,99175.70
2022-09-14T14:34:29.080Z,99179.51
2022-09-14T14:36:57.773Z,99174.98
2022-09-14T14:39:26.156Z,99178.17
2022-09-14T14:41:54.397Z,99181.40
2022-09-14T14:44:30.104Z,99183.05
2022-09-14T14:46:58.290Z,99187.01
2022-09-14T14:49:26.746Z,99190.75
2022-09-14T14:51:54.792Z,99194.93
2022-09-14T14:54:22.854Z,99199.05
2022-09-14T14:56:51.689Z,99191.73
2022-09-14T14:59:19.873Z,99182.16
2022-09-14T15:01:49.333Z,99176.95
2022-09-14T15:04:17.411Z,99174.11
2022-09-14T15:06:47.488Z,99171.95
2022-09-14T15:09:19.468Z,99167.50
2022-09-14T15:11:47.683Z,99163.89
2022-09-14T15:14:18.577Z,99160.27
2022-09-14T15:16:47.769Z,99160.13
2022-09-14T15:19:16.775Z,99152.84
2022-09-14T15:21:44.834Z,99156.69
2022-09-14T15:24:12.904Z,99155.60
2022-09-14T15:26:41.284Z,99150.54
2022-09-14T15:29:13.743Z,99147.09
2022-09-14T15:31:41.798Z,99148.95
2022-09-14T15:34:10.127Z,99139.21
2022-09-14T15:36:52.765Z,99143.80
2022-09-14T15:39:24.606Z,99146.38
2022-09-14T15:41:53.814Z,99142.06
2022-09-14T15:44:22.817Z,99141.75
2022-09-14T15:46:51.307Z,99143.08
2022-09-14T15:49:22.095Z,99137.41
2022-09-14T15:51:52.572Z,99140.70
2022-09-14T15:54:25.330Z,99134.33
2022-09-14T15:56:55.966Z,99133.39
2022-09-14T15:59:24.047Z,99131.45
2022-09-14T16:01:52.671Z,99131.08
2022-09-14T16:04:21.384Z,99130.90
2022-09-14T16:06:50.145Z,99126.68
2022-09-14T16:09:21.855Z,99127.58
2022-09-14T16:11:50.190Z,99130.75
2022-09-14T16:14:18.178Z,99126.46
2022-09-14T16:16:46.375Z,99126.05
2022-09-14T16:19:15.538Z,99121.92
2022-09-14T16:21:43.696Z,99114.42
2022-09-14T16:24:18.294Z,99114.80
2022-09-14T16:26:47.424Z,99116.43
2022-09-14T16:29:17.719Z,99115.36
2022-09-14T16:31:48.197Z,99117.58
2022-09-14T16:34:22.113Z,99120.33
2022-09-14T16:36:51.354Z,99121.16
2022-09-14T16:39:29.584Z,99126.29
2022-09-14T16:41:59.392Z,99120.93
2022-09-14T16:44:28.759Z,99119.66
2022-09-14T16:46:58.607Z,99113.33
2022-09-14T16:49:28.417Z,99116.30
2022-09-14T16:52:01.294Z,99114.38
2022-09-14T16:54:30.145Z,99114.31
2022-09-14T16:56:59.775Z,99114.83
2022-09-14T16:59:27.956Z,99108.53
2022-09-14T17:01:56.227Z,99111.30
2022-09-14T17:04:25.821Z,99112.45
2022-09-14T17:06:55.365Z,99112.77
2022-09-14T17:09:28.070Z,99111.31
2022-09-14T17:11:57.911Z,99110.58
2022-09-14T17:14:28.993Z,99113.73
2022-09-14T17:16:59.263Z,99112.35
2022-09-14T17:19:28.088Z,99113.23
2022-09-14T17:21:57.906Z,99115.46
2022-09-14T17:24:26.245Z,99115.73
2022-09-14T17:26:54.520Z,99123.98
2022-09-14T17:29:22.657Z,99122.63
2022-09-14T17:31:50.939Z,99117.05
2022-09-14T17:34:19.203Z,99110.17
2022-09-14T17:36:47.776Z,99111.64
2022-09-14T17:39:15.931Z,99115.39
2022-09-14T17:41:44.485Z,99116.94
2022-09-14T17:44:14.882Z,99116.72
2022-09-14T17:46:52.020Z,99113.96
2022-09-14T17:49:23.206Z,99115.89
2022-09-14T17:51:52.091Z,99112.73
2022-09-14T17:54:20.905Z,99114.27
2022-09-14T17:56:49.743Z,99117.88
2022-09-14T17:59:21.046Z,99117.63
2022-09-14T18:01:50.349Z,99114.56
2022-09-14T18:04:19.403Z,99104.85
2022-09-14T18:06:50.250Z,99104.12
2022-09-14T18:09:22.469Z,99105.05
2022-09-14T18:11:50.992Z,99102.21
2022-09-14T18:14:19.225Z,99098.66
2022-09-14T18:16:47.534Z,99097.52
2022-09-14T18:19:16.622Z,99100.33
2022-09-14T18:21:48.980Z,99102.95
2022-09-14T18:24:20.459Z,99104.69
2022-09-14T18:26:49.000Z,99102.08
2022-09-14T18:29:21.628Z,99096.95
2022-09-14T18:31:53.735Z,99105.31
2022-09-14T18:34:24.034Z,99105.58
2022-09-14T18:36:52.372Z,99106.81
2022-09-14T18:39:21.487Z,99106.45
2022-09-14T18:41:56.534Z,99108.02
2022-09-14T18:44:24.604Z,99113.39
2022-09-14T18:46:52.766Z,99106.38
2022-09-14T18:49:21.325Z,99106.73
2022-09-14T18:51:49.516Z,99104.89
2022-09-14T18:54:18.228Z,99107.02
2022-09-14T18:56:46.439Z,99098.67
2022-09-14T18:59:15.517Z,99096.02
2022-09-14T19:01:44.375Z,99096.84
2022-09-14T19:04:13.319Z,99092.58
2022-09-14T19:06:42.012Z,99087.89
2022-09-14T19:09:11.380Z,99092.36
2022-09-14T19:11:39.729Z,99093.95
2022-09-14T19:14:11.703Z,99091.84
2022-09-14T19:16:41.455Z,99088.26
2022-09-14T19:19:13.456Z,99074.73
2022-09-14T19:21:43.728Z,99067.89
2022-09-14T19:24:15.496Z,99071.63
2022-09-14T19:26:47.177Z,99075.14
2022-09-14T19:29:19.640Z,99074.91
2022-09-14T19:31:51.835Z,99073.34
2022-09-14T19:34:23.711Z,99067.61
2022-09-14T19:36:53.410Z,99070.87
2022-09-14T19:39:23.368Z,99081.07
2022-09-14T19:41:52.798Z,99083.85
2022-09-14T19:44:22.715Z,99079.79
2022-09-14T19:46:52.006Z,99080.88
2022-09-14T19:49:22.724Z,99076.45
2022-09-14T19:51:50.984Z,99080.51
2022-09-14T19:54:19.489Z,99077.09
2022-09-14T19:56:47.862Z,99078.54
2022-09-14T19:59:17.044Z,99080.52
2022-09-14T20:01:46.191Z,99074.89
2022-09-14T20:04:15.931Z,99065.61
2022-09-14T20:06:46.287Z,99060.52
2022-09-14T20:09:22.620Z,99059.60
2022-09-14T20:11:52.762Z,99060.95
2022-09-14T20:14:24.744Z,99058.19
2022-09-14T20:16:57.607Z,99055.43
2022-09-14T20:19:28.479Z,99054.11
2022-09-14T20:21:56.740Z,99057.23
2022-09-14T20:24:28.191Z,99061.50
2022-09-14T20:26:59.931Z,99062.94
2022-09-14T20:29:31.607Z,99058.23
2022-09-14T20:32:04.964Z,99057.16
2022-09-14T20:34:34.559Z,99054.91
2022-09-14T20:37:02.694Z,99054.29
2022-09-14T20:39:30.859Z,99056.86
2022-09-14T20:41:58.969Z,99055.45
2022-09-14T20:44:27.210Z,99055.02
2022-09-14T20:46:55.470Z,99045.89
2022-09-14T20:49:24.052Z,99045.40
2022-09-14T20:51:52.967Z,99047.61
2022-09-14T20:54:22.562Z,99044.98
2022-09-14T20:56:50.762Z,99044.88
2022-09-14T20:59:19.650Z,99042.73
2022-09-14T21:01:49.869Z,99050.23
2022-09-14T21:04:22.271Z,99052.73
2022-09-14T21:06:53.450Z,99044.73
2022-09-14T21:09:24.822Z,99042.25
2022-09-14T21:11:53.525Z,99044.58
2022-09-14T21:14:22.951Z,99048.94
2022-09-14T21:16:55.422Z,99044.69
2022-09-14T21:19:27.561Z,99041.63
2022-09-14T21:21:56.929Z,99040.05
2022-09-14T21:24:25.575Z,99038.48
2022-09-14T21:26:53.635Z,99038.75
2022-09-14T21:29:24.121Z,99036.45
2022-09-14T21:31:53.075Z,99031.95
2022-09-14T21:34:21.938Z,99037.28
2022-09-14T21:36:51.762Z,99040.59
2022-09-14T21:39:25.585Z,99039.68
2022-09-14T21:41:58.762Z,99039.20
2022-09-14T21:44:32.812Z,99034.17
2022-09-14T21:47:02.362Z,99030.83
2022-09-14T21:49:31.012Z,99028.59
2022-09-14T21:51:59.112Z,99033.55
2022-09-14T21:54:27.250Z,99034.43
2022-09-14T21:56:55.677Z,99029.75
2022-09-14T21:59:24.279Z,99031.85
2022-09-14T22:01:52.541Z,99031.66
2022-09-14T22:04:24.171Z,99032.64
2022-09-14T22:06:53.464Z,99028.60
2022-09-14T22:09:25.942Z,99026.48
2022-09-14T22:11:55.019Z,99024.08
2022-09-14T22:14:27.588Z,99022.92
2022-09-14T22:16:56.409Z,99020.98
2022-09-14T22:30:54.547Z,99000.38
2022-09-14T22:33:23.464Z,98992.13
2022-09-14T22:35:58.554Z,98986.98
2022-09-14T22:38:27.930Z,98983.04
2022-09-14T22:41:17.172Z,98983.92
2022-09-14T22:44:04.503Z,98977.13
2022-09-14T22:46:32.409Z,98975.01
2022-09-14T22:48:59.049Z,98973.50
2022-09-14T22:51:28.251Z,98973.23
2022-09-14T22:53:56.801Z,98973.52
2022-09-14T22:56:27.230Z,98973.15
2022-09-14T22:58:54.476Z,98970.57
2022-09-14T23:01:25.859Z,98971.59
2022-09-14T23:03:58.017Z,98964.23
2022-09-14T23:06:31.478Z,98958.40
2022-09-14T23:09:00.466Z,98950.75
2022-09-14T23:11:27.510Z,98949.19
2022-09-14T23:13:54.094Z,98944.78
2022-09-14T23:16:25.513Z,98946.00
2022-09-14T23:18:55.090Z,98940.79
2022-09-14T23:21:22.821Z,98939.11
2022-09-14T23:24:06.801Z,98935.77
2022-09-14T23:26:33.735Z,98934.52
2022-09-14T23:29:04.768Z,98934.16
2022-09-14T23:31:32.118Z,98931.70
2022-09-14T23:34:01.542Z,98931.75
2022-09-14T23:36:28.897Z,98931.38
2022-09-14T23:38:56.109Z,98930.89
2022-09-14T23:41:24.496Z,98924.06
2022-09-14T23:43:52.314Z,98923.00
2022-09-14T23:46:20.095Z,98924.19
2022-09-14T23:48:47.524Z,98923.47
2022-09-14T23:51:15.280Z,98930.24
2022-09-14T23:53:43.329Z,98927.75
2022-09-14T23:56:11.337Z,98932.36
2022-09-14T23:58:40.925Z,98930.77
